Αρχική σελίδα
METAR-TAF:

METAR-TAF

Αεροδρόμια :

Beatrice Municipal Airport

Beatrice, Νεμπράσκα, Ηνωμένες Πολιτείες Αμερικής

γεωγραφικό πλάτος: 40-18N, γεωγραφικό μήκος: 096-45W, υψόμετρο: 403 μ

Παρών καιρός

Η αναφορά έγινε 26 λεπτά πριν, στις 15:35 UTC
Άνεμος 8 kt από Β
Θερμοκρασία -10°C
Υγρασία 79%
Πίεση 1031 hPa
Ορατότητα: 16.1 χλμ
Νεφοσκεπής σε ύψος 800 πόδια
Ασθενές χιόνι

METAR: KBIE 181535Z AUTO 35008KT 10SM -SN OVC008 M10/M13 A3045 RMK AO2 T11031128

Χρόνος: 10:01 (16:01 UTC)


TAF: λείπει

Μετεωρολογικές αναφορές και προγνώσεις για περισσότερα από 4000 αεροδρόμια (δελτία METAR και TAF).

Οι διαθέσιμοι σταθμοί απεικονίζονται στο χάρτη με κίτρινες και κόκκινες κουκκίδες.

Μετακινήστε το ποντίκι πάνω από τις κουκκίδες για να δείτε το όνομα του σταθμού.

Στη συνέχεια, κάντε κλικ για να δείτε τις μετεωρολογικές αναφορές και τις προγνώσεις καιρού.

Για να αλλάξετε το χάρτη: κάντε κλικ στα πράσινα κουμπιά με τον μαύρο σταυρό για να ζουμάρετε, στο πράσινο κουμπί με την παύλα για να αφαιρέσετε το ζουμ ή στα πράσινα βέλη για να αντιπαραβάλλετε χάρτες.


METAR-TAF: